Ana Sayfa
METAR-TAF:

METAR-TAF

Havaalanları :

Cluj-Napoca, Romanya

Enlem: 46-47N, Boylam: 023-34E, yükseklik: 315 m

Güncel hava durumu gözlemi

Rapor saat 15:30 UTC de 37 dakika önce yapıldı.
Rüzgar kuzeybatıdan 10 kt
Sıcaklık 6°C
Nem 52%
Basınç 1018 hPa
Görüş mesafesi 10 km veya daha fazla
5500 ft yükseklikte az bulutlu

METAR: LRCL 241530Z 31010KT 9999 FEW055 06/M03 Q1018

Saat: 18:07 (16:07 UTC)

Tahmin

Rapor saat 14:00 UTC de 2 saat ve 7 dakika önce yapıldı.
Ayın 24'si saat 15 UTC'den ayın 24'si saat 24 UTC'ye kadar geçerli Tahmin
Rüzgar kuzeybatıdan 18 kt
Görüş mesafesi 10 km veya daha fazla
4000 ft yükseklikte parçalı bulutlu
Dönüşüyor
ayın 24'si saat 16 UTC'den ayın 24'si saat 18 UTC'ye kadar
Rüzgar batıdan 8 kt

TAF: LRCL 241400Z 2415/2424 32018KT 9999 SCT040 BECMG 2416/2418 28008KT

4.000'den fazla havaalanı için hava durumu gözlemleri ve tahminleri (METAR ve TAF raporları).

Kullanılabilir istasyonlar harita üzerinde sarı ve kırmızı noktalarla gösterilir.

İstasyonun adını görmek için fareyi noktanın üzerinde gezdirin.

Sonrasında hava gözlem ve tahminlerini görmek için tıklayın.

Haritayı değiştirmek için: yaklaştırmak için siyah artı işaretli yeşil düğmeye ve uzaklaştırmak için de eksi işaretli düğmeye hızla tıklayın; bitişik haritalar için yeşil okları kullanın.


METAR-TAF: